createdAt,value
2019-04-16T00:00:29.459Z,93.37
2019-04-16T00:01:29.473Z,93.46
2019-04-16T00:02:29.487Z,92.80
2019-04-16T00:03:29.501Z,93.37
2019-04-16T00:04:29.511Z,93.37
2019-04-16T00:05:29.530Z,93.18
2019-04-16T00:06:29.540Z,93.56
2019-04-16T00:07:29.553Z,93.46
2019-04-16T00:08:29.567Z,93.84
2019-04-16T00:09:29.582Z,93.56
2019-04-16T00:10:29.596Z,93.56
2019-04-16T00:11:29.609Z,93.65
2019-04-16T00:12:29.623Z,93.75
2019-04-16T00:13:29.639Z,93.46
2019-04-16T00:14:29.651Z,93.94
2019-04-16T00:15:29.661Z,94.04
2019-04-16T00:16:29.678Z,93.94
2019-04-16T00:17:29.691Z,94.32
2019-04-16T00:18:29.706Z,94.13
2019-04-16T00:19:29.718Z,94.32
2019-04-16T00:20:29.732Z,94.70
2019-04-16T00:21:29.745Z,94.60
2019-04-16T00:22:29.761Z,94.70
2019-04-16T00:23:29.774Z,94.60
2019-04-16T00:24:29.789Z,94.42
2019-04-16T00:25:29.798Z,94.32
2019-04-16T00:26:29.832Z,94.42
2019-04-16T00:27:29.897Z,94.42
2019-04-16T00:28:30.680Z,94.89
2019-04-16T00:29:32.608Z,94.70
2019-04-16T00:30:29.895Z,94.23
2019-04-16T00:31:29.961Z,94.42
2019-04-16T00:32:29.958Z,94.60
2019-04-16T00:33:29.946Z,94.79
2019-04-16T00:34:29.951Z,94.70
2019-04-16T00:35:29.955Z,94.84
2019-04-16T00:36:29.961Z,95.07
2019-04-16T00:37:29.964Z,94.74
2019-04-16T00:38:40.072Z,95.22
2019-04-16T00:39:29.992Z,95.45
2019-04-16T00:40:30.006Z,94.89
2019-04-16T00:41:30.020Z,95.03
2019-04-16T00:42:30.031Z,95.31
2019-04-16T00:43:30.044Z,95.31
2019-04-16T00:44:30.060Z,95.22
2019-04-16T00:45:30.070Z,95.17
2019-04-16T00:46:30.088Z,95.22
2019-04-16T00:47:30.103Z,95.12
2019-04-16T00:48:30.109Z,95.22
2019-04-16T00:49:30.126Z,95.41
2019-04-16T00:50:30.139Z,95.41
2019-04-16T00:51:30.152Z,95.22
2019-04-16T00:52:30.165Z,95.41
2019-04-16T00:53:30.181Z,95.31
2019-04-16T00:54:30.195Z,95.22
2019-04-16T00:55:30.205Z,95.88
2019-04-16T00:56:30.221Z,96.07
2019-04-16T00:57:30.234Z,95.98
2019-04-16T00:58:30.246Z,95.31
2019-04-16T00:59:30.259Z,95.31
2019-04-16T01:00:30.584Z,95.69
2019-04-16T01:01:30.286Z,95.79
2019-04-16T01:02:30.300Z,96.07
2019-04-16T01:03:30.315Z,95.41
2019-04-16T01:04:30.327Z,95.41
2019-04-16T01:05:35.089Z,95.50
2019-04-16T01:06:30.355Z,95.50
2019-04-16T01:07:30.369Z,95.60
2019-04-16T01:08:30.381Z,95.50
2019-04-16T01:09:30.392Z,95.98
2019-04-16T01:10:30.406Z,95.88
2019-04-16T01:11:30.419Z,95.69
2019-04-16T01:12:30.441Z,95.88
2019-04-16T01:13:30.447Z,95.69
2019-04-16T01:14:30.460Z,95.60
2019-04-16T01:15:32.146Z,95.79
2019-04-16T01:16:32.724Z,95.79
2019-04-16T01:17:30.500Z,95.88
2019-04-16T01:18:30.511Z,95.88
2019-04-16T01:19:30.526Z,95.79
2019-04-16T01:20:30.539Z,95.79
2019-04-16T01:21:30.556Z,95.88
2019-04-16T01:22:30.569Z,95.50
2019-04-16T01:23:30.578Z,95.88
2019-04-16T01:24:30.592Z,96.07
2019-04-16T01:25:30.612Z,96.17
2019-04-16T01:26:30.620Z,96.17
2019-04-16T01:27:30.630Z,96.17
2019-04-16T01:28:31.989Z,96.17
2019-04-16T01:29:33.580Z,96.17
2019-04-16T01:30:30.674Z,96.17
2019-04-16T01:31:30.684Z,96.17
2019-04-16T01:32:30.700Z,96.26
2019-04-16T01:33:30.727Z,96.17
2019-04-16T01:34:30.731Z,96.26
2019-04-16T01:35:30.736Z,96.07
2019-04-16T01:36:30.750Z,96.26
2019-04-16T01:37:30.764Z,96.26
2019-04-16T01:38:30.777Z,96.17
2019-04-16T01:39:30.788Z,96.45
2019-04-16T01:40:30.803Z,96.26
2019-04-16T01:41:30.818Z,96.45
2019-04-16T01:42:30.828Z,96.17
2019-04-16T01:43:30.843Z,96.26
2019-04-16T01:44:30.853Z,95.60
2019-04-16T01:45:30.868Z,95.98
2019-04-16T01:46:32.829Z,95.98
2019-04-16T01:47:35.674Z,95.79
2019-04-16T01:48:30.905Z,95.98
2019-04-16T01:49:30.920Z,95.79
2019-04-16T01:50:30.933Z,96.17
2019-04-16T01:51:30.946Z,95.79
2019-04-16T01:52:30.958Z,95.79
2019-04-16T01:53:30.972Z,96.07
2019-04-16T01:54:30.986Z,95.79
2019-04-16T01:55:31.001Z,95.69
2019-04-16T01:56:31.012Z,96.26
2019-04-16T01:57:31.358Z,96.36
2019-04-16T01:58:33.586Z,96.26
2019-04-16T01:59:35.591Z,96.07
2019-04-16T02:00:31.068Z,95.79
2019-04-16T02:01:31.079Z,95.79
2019-04-16T02:02:31.089Z,95.88
2019-04-16T02:03:31.100Z,95.79
2019-04-16T02:04:31.116Z,95.88
2019-04-16T02:05:31.145Z,96.17
2019-04-16T02:06:31.141Z,96.07
2019-04-16T02:07:31.154Z,95.88
2019-04-16T02:08:31.743Z,96.17
2019-04-16T02:09:34.175Z,95.79
2019-04-16T02:10:31.192Z,95.79
2019-04-16T02:11:31.205Z,95.79
2019-04-16T02:12:31.216Z,95.88
2019-04-16T02:13:31.231Z,95.79
2019-04-16T02:14:31.247Z,95.69
2019-04-16T02:15:31.265Z,95.79
2019-04-16T02:16:31.269Z,95.93
2019-04-16T02:17:31.283Z,95.79
2019-04-16T02:18:31.298Z,95.74
2019-04-16T02:19:32.882Z,95.64
2019-04-16T02:20:31.320Z,95.74
2019-04-16T02:21:31.333Z,95.83
2019-04-16T02:22:31.349Z,95.83
2019-04-16T02:23:31.360Z,95.64
2019-04-16T02:24:31.373Z,96.02
2019-04-16T02:25:31.384Z,95.83
2019-04-16T02:26:31.399Z,95.93
2019-04-16T02:27:31.411Z,95.83
2019-04-16T02:28:31.424Z,95.74
2019-04-16T02:29:31.437Z,95.74
2019-04-16T02:30:37.705Z,96.02
2019-04-16T02:31:31.464Z,95.74
2019-04-16T02:32:31.477Z,95.74
2019-04-16T02:33:31.490Z,95.74
2019-04-16T02:34:31.505Z,95.64
2019-04-16T02:35:31.513Z,95.83
2019-04-16T02:36:31.525Z,95.83
2019-04-16T02:37:35.401Z,95.45
2019-04-16T02:38:31.552Z,95.64
2019-04-16T02:39:47.373Z,95.93
2019-04-16T02:40:31.577Z,95.64
2019-04-16T02:41:31.592Z,96.02
2019-04-16T02:42:32.207Z,95.74
2019-04-16T02:43:31.616Z,95.83
2019-04-16T02:44:31.628Z,96.02
2019-04-16T02:45:31.679Z,96.02
2019-04-16T02:46:32.761Z,95.74
2019-04-16T02:47:31.726Z,95.74
2019-04-16T02:48:31.724Z,95.55
2019-04-16T02:49:31.713Z,95.93
2019-04-16T02:50:32.251Z,95.74
2019-04-16T02:51:31.779Z,96.02
2019-04-16T02:52:31.787Z,95.74
2019-04-16T02:53:31.786Z,95.74
2019-04-16T02:54:33.896Z,95.83
2019-04-16T02:55:31.781Z,96.02
2019-04-16T02:56:31.780Z,95.74
2019-04-16T02:57:31.791Z,95.64
2019-04-16T02:58:34.524Z,95.64
2019-04-16T02:59:31.813Z,95.74
2019-04-16T03:00:31.831Z,96.12
2019-04-16T03:01:31.841Z,96.12
2019-04-16T03:02:31.858Z,96.21
2019-04-16T03:03:31.865Z,96.12
2019-04-16T03:04:31.881Z,96.21
2019-04-16T03:05:31.892Z,96.21
2019-04-16T03:06:32.533Z,96.21
2019-04-16T03:07:32.784Z,95.93
2019-04-16T03:08:33.426Z,96.02
2019-04-16T03:09:31.942Z,95.74
2019-04-16T03:10:31.956Z,95.74
2019-04-16T03:11:31.971Z,95.83
2019-04-16T03:12:31.981Z,96.21
2019-04-16T03:13:31.994Z,96.31
2019-04-16T03:14:32.006Z,96.12
2019-04-16T03:15:33.683Z,96.12
2019-04-16T03:16:32.033Z,96.31
2019-04-16T03:17:32.045Z,96.02
2019-04-16T03:18:32.055Z,96.02
2019-04-16T03:19:32.064Z,96.12
2019-04-16T03:20:32.079Z,96.12
2019-04-16T03:21:32.091Z,96.12
2019-04-16T03:22:33.404Z,96.21
2019-04-16T03:23:36.813Z,96.21
2019-04-16T03:24:32.135Z,96.21
2019-04-16T03:25:32.142Z,95.97
2019-04-16T03:26:32.153Z,95.97
2019-04-16T03:27:32.169Z,95.97
2019-04-16T03:28:32.180Z,96.12
2019-04-16T03:29:32.190Z,96.31
2019-04-16T03:30:40.263Z,95.93
2019-04-16T03:31:32.218Z,96.35
2019-04-16T03:32:35.443Z,96.16
2019-04-16T03:33:32.241Z,96.26
2019-04-16T03:34:32.263Z,96.26
2019-04-16T03:35:32.262Z,96.07
2019-04-16T03:36:32.281Z,96.26
2019-04-16T03:37:32.956Z,96.16
2019-04-16T03:38:36.737Z,96.16
2019-04-16T03:39:32.316Z,96.16
2019-04-16T03:40:32.327Z,96.16
2019-04-16T03:41:32.349Z,96.16
2019-04-16T03:42:32.352Z,96.16
2019-04-16T03:43:33.058Z,96.07
2019-04-16T03:44:33.512Z,96.16
2019-04-16T03:45:32.390Z,96.26
2019-04-16T03:46:32.401Z,96.26
2019-04-16T03:47:32.414Z,96.35
2019-04-16T03:48:32.426Z,96.26
2019-04-16T03:49:32.440Z,96.35
2019-04-16T03:50:32.461Z,96.26
2019-04-16T03:51:32.577Z,96.07
2019-04-16T03:52:32.474Z,96.16
2019-04-16T03:53:32.487Z,96.64
2019-04-16T03:54:32.497Z,96.54
2019-04-16T03:55:32.513Z,96.83
2019-04-16T03:56:32.522Z,96.54
2019-04-16T03:57:33.132Z,96.45
2019-04-16T03:58:35.358Z,96.45
2019-04-16T03:59:32.563Z,96.45
2019-04-16T04:00:32.574Z,96.45
2019-04-16T04:01:32.585Z,96.83
2019-04-16T04:02:32.597Z,97.02
2019-04-16T04:03:32.605Z,97.02
2019-04-16T04:04:32.621Z,96.64
2019-04-16T04:05:34.935Z,96.64
2019-04-16T04:06:32.645Z,96.54
2019-04-16T04:07:32.658Z,96.45
2019-04-16T04:08:32.670Z,97.11
2019-04-16T04:09:32.682Z,96.92
2019-04-16T04:10:36.754Z,97.20
2019-04-16T04:11:32.706Z,97.11
2019-04-16T04:12:32.718Z,97.02
2019-04-16T04:13:32.731Z,96.83
2019-04-16T04:14:32.745Z,96.92
2019-04-16T04:15:32.757Z,97.02
2019-04-16T04:16:33.549Z,96.83
2019-04-16T04:17:35.591Z,97.11
2019-04-16T04:18:32.792Z,97.20
2019-04-16T04:19:32.805Z,96.92
2019-04-16T04:20:32.816Z,97.11
2019-04-16T04:21:32.828Z,96.83
2019-04-16T04:22:32.841Z,97.11
2019-04-16T04:23:32.851Z,96.83
2019-04-16T04:24:32.869Z,96.83
2019-04-16T04:25:35.992Z,97.02
2019-04-16T04:26:32.892Z,97.11
2019-04-16T04:27:32.900Z,96.73
2019-04-16T04:28:32.911Z,97.02
2019-04-16T04:29:32.928Z,96.73
2019-04-16T04:30:32.937Z,96.92
2019-04-16T04:31:33.085Z,97.02
2019-04-16T04:32:35.473Z,96.83
2019-04-16T04:33:32.973Z,97.11
2019-04-16T04:34:32.986Z,97.11
2019-04-16T04:35:32.996Z,97.02
2019-04-16T04:36:33.010Z,96.73
2019-04-16T04:37:33.022Z,96.92
2019-04-16T04:38:33.676Z,97.11
2019-04-16T04:39:33.047Z,97.11
2019-04-16T04:40:43.921Z,97.11
2019-04-16T04:41:33.072Z,97.39
2019-04-16T04:42:33.083Z,97.49
2019-04-16T04:43:33.097Z,96.92
2019-04-16T04:44:33.643Z,97.30
2019-04-16T04:45:33.122Z,97.11
2019-04-16T04:46:33.132Z,97.11
2019-04-16T04:47:33.144Z,97.11
2019-04-16T04:48:33.158Z,96.92
2019-04-16T04:49:33.167Z,97.11
2019-04-16T04:50:35.404Z,97.11
2019-04-16T04:51:33.192Z,97.30
2019-04-16T04:52:33.206Z,97.11
2019-04-16T04:53:33.218Z,97.39
2019-04-16T04:54:33.230Z,97.49
2019-04-16T04:55:33.241Z,97.30
2019-04-16T04:56:33.264Z,97.49
2019-04-16T04:57:33.267Z,97.30
2019-04-16T04:58:34.078Z,96.83
2019-04-16T04:59:36.489Z,97.11
2019-04-16T05:00:33.300Z,96.92
2019-04-16T05:01:33.314Z,97.30
2019-04-16T05:02:33.326Z,97.49
2019-04-16T05:03:33.337Z,97.11
2019-04-16T05:04:33.350Z,97.11
2019-04-16T05:05:33.365Z,97.02
2019-04-16T05:06:33.375Z,97.02
2019-04-16T05:07:33.389Z,96.83
2019-04-16T05:08:33.400Z,97.11
2019-04-16T05:09:36.560Z,97.11
2019-04-16T05:10:36.494Z,96.92
2019-04-16T05:11:33.436Z,96.83
2019-04-16T05:12:33.456Z,96.92
2019-04-16T05:13:33.486Z,96.92
2019-04-16T05:14:33.544Z,96.64
2019-04-16T05:15:33.545Z,96.64
2019-04-16T05:16:34.514Z,96.64
2019-04-16T05:17:35.437Z,96.73
2019-04-16T05:18:33.556Z,96.73
2019-04-16T05:19:33.598Z,96.83
2019-04-16T05:20:33.609Z,96.78
2019-04-16T05:21:33.606Z,97.02
2019-04-16T05:22:33.625Z,96.88
2019-04-16T05:23:33.596Z,96.83
2019-04-16T05:24:33.598Z,96.50
2019-04-16T05:25:34.400Z,96.50
2019-04-16T05:26:36.084Z,96.69
2019-04-16T05:27:33.636Z,96.64
2019-04-16T05:28:33.650Z,96.78
2019-04-16T05:29:33.661Z,96.69
2019-04-16T05:30:33.674Z,96.59
2019-04-16T05:31:33.688Z,96.69
2019-04-16T05:32:34.287Z,96.69
2019-04-16T05:33:34.481Z,96.78
2019-04-16T05:34:34.571Z,96.40
2019-04-16T05:35:33.740Z,96.02
2019-04-16T05:36:33.749Z,96.02
2019-04-16T05:37:33.763Z,95.83
2019-04-16T05:38:33.781Z,95.74
2019-04-16T05:39:33.790Z,95.36
2019-04-16T05:40:35.180Z,95.36
2019-04-16T05:41:33.814Z,95.45
2019-04-16T05:42:33.829Z,94.98
2019-04-16T05:43:33.841Z,95.36
2019-04-16T05:44:34.199Z,95.07
2019-04-16T05:45:34.513Z,94.89
2019-04-16T05:46:33.877Z,94.51
2019-04-16T05:47:33.890Z,94.79
2019-04-16T05:48:33.901Z,94.98
2019-04-16T05:49:33.915Z,94.79
2019-04-16T05:50:33.930Z,94.70
2019-04-16T05:51:33.942Z,94.60
2019-04-16T05:52:35.699Z,94.32
2019-04-16T05:53:33.971Z,94.51
2019-04-16T05:54:33.981Z,94.42
2019-04-16T05:55:33.992Z,94.74
2019-04-16T05:56:34.009Z,94.56
2019-04-16T05:57:34.017Z,93.99
2019-04-16T05:58:34.030Z,94.08
2019-04-16T05:59:34.547Z,93.80
2019-04-16T06:00:34.058Z,93.70
2019-04-16T06:01:34.073Z,93.70
2019-04-16T06:02:34.084Z,93.61
2019-04-16T06:03:34.098Z,93.89
2019-04-16T06:04:34.109Z,93.61
2019-04-16T06:05:34.126Z,93.70
2019-04-16T06:06:34.145Z,93.42
2019-04-16T06:07:37.752Z,93.23
2019-04-16T06:08:34.163Z,93.51
2019-04-16T06:09:34.177Z,93.32
2019-04-16T06:10:34.190Z,93.04
2019-04-16T06:11:36.445Z,93.13
2019-04-16T06:12:34.217Z,92.66
2019-04-16T06:13:34.232Z,92.90
2019-04-16T06:14:34.246Z,93.27
2019-04-16T06:15:35.806Z,93.27
2019-04-16T06:16:34.274Z,93.27
2019-04-16T06:17:34.287Z,92.80
2019-04-16T06:18:37.342Z,93.37
2019-04-16T06:19:34.312Z,92.52
2019-04-16T06:20:34.326Z,92.71
2019-04-16T06:21:34.342Z,92.80
2019-04-16T06:22:34.354Z,91.76
2019-04-16T06:23:34.377Z,91.85
2019-04-16T06:24:35.765Z,91.90
2019-04-16T06:25:34.397Z,91.71
2019-04-16T06:26:34.411Z,91.42
2019-04-16T06:27:34.423Z,91.33
2019-04-16T06:28:34.440Z,91.14
2019-04-16T06:29:34.453Z,90.86
2019-04-16T06:30:34.471Z,90.38
2019-04-16T06:31:36.254Z,89.58
2019-04-16T06:32:34.499Z,88.91
2019-04-16T06:33:34.573Z,88.91
2019-04-16T06:34:34.525Z,88.81
2019-04-16T06:35:42.970Z,88.39
2019-04-16T06:36:34.557Z,86.49
2019-04-16T06:37:34.576Z,85.68
2019-04-16T06:38:34.591Z,85.01
2019-04-16T06:39:34.605Z,84.44
2019-04-16T06:40:34.621Z,84.44
2019-04-16T06:41:41.382Z,84.25
2019-04-16T06:42:34.651Z,82.77
2019-04-16T06:43:34.669Z,81.82
2019-04-16T06:44:35.070Z,81.25
2019-04-16T06:45:37.138Z,80.82
2019-04-16T06:46:39.381Z,80.91
2019-04-16T06:47:34.735Z,80.66
2019-04-16T06:48:35.331Z,80.66
2019-04-16T06:49:34.768Z,80.38
2019-04-16T06:50:39.464Z,79.85
2019-04-16T06:51:34.800Z,79.47
2019-04-16T06:52:34.816Z,78.33
2019-04-16T06:53:34.843Z,78.56
2019-04-16T06:54:34.852Z,78.17
2019-04-16T06:55:36.096Z,76.94
2019-04-16T06:56:37.416Z,76.31
2019-04-16T06:57:34.906Z,76.31
2019-04-16T06:58:50.218Z,75.84
2019-04-16T06:59:34.940Z,74.92
2019-04-16T07:00:35.297Z,72.72
2019-04-16T07:01:37.324Z,71.68
2019-04-16T07:02:37.463Z,71.68
2019-04-16T07:03:35.011Z,71.48
2019-04-16T07:04:35.034Z,70.86
2019-04-16T07:05:35.050Z,70.67
2019-04-16T07:06:36.313Z,69.71
2019-04-16T07:07:39.823Z,68.38
2019-04-16T07:08:38.091Z,68.66
2019-04-16T07:09:41.477Z,68.38
2019-04-16T07:10:44.405Z,67.71
2019-04-16T07:11:35.164Z,67.36
2019-04-16T07:12:38.657Z,67.36
2019-04-16T07:13:35.199Z,66.41
2019-04-16T07:14:36.182Z,66.41
2019-04-16T07:15:35.241Z,66.78
2019-04-16T07:16:35.258Z,65.55
2019-04-16T07:17:35.304Z,65.26
2019-04-16T07:18:35.542Z,64.88
2019-04-16T07:19:35.396Z,64.88
2019-04-16T07:20:35.382Z,65.17
2019-04-16T07:21:35.381Z,65.64
2019-04-16T07:22:35.430Z,66.22
2019-04-16T07:23:35.557Z,65.93
2019-04-16T07:24:37.012Z,66.31
2019-04-16T07:25:40.362Z,66.06
2019-04-16T07:26:38.894Z,65.87
2019-04-16T07:27:38.368Z,65.01
2019-04-16T07:28:35.581Z,64.53
2019-04-16T07:29:35.596Z,63.76
2019-04-16T07:30:38.469Z,63.96
2019-04-16T07:31:35.567Z,63.57
2019-04-16T07:32:35.575Z,64.28
2019-04-16T07:33:35.595Z,63.80
2019-04-16T07:34:35.616Z,63.60
2019-04-16T07:35:35.634Z,63.70
2019-04-16T07:36:35.657Z,63.93
2019-04-16T07:37:35.676Z,62.37
2019-04-16T07:38:36.079Z,61.63
2019-04-16T07:39:37.243Z,61.82
2019-04-16T07:40:35.738Z,61.63
2019-04-16T07:41:35.756Z,61.92
2019-04-16T07:42:35.785Z,61.72
2019-04-16T07:43:35.800Z,61.72
2019-04-16T07:44:36.546Z,61.82
2019-04-16T07:45:35.844Z,61.66
2019-04-16T07:46:35.864Z,60.52
2019-04-16T07:47:35.886Z,60.20
2019-04-16T07:48:35.911Z,59.72
2019-04-16T07:49:35.928Z,60.23
2019-04-16T07:50:35.951Z,60.13
2019-04-16T07:51:36.652Z,60.52
2019-04-16T07:52:36.013Z,60.04
2019-04-16T07:53:36.018Z,60.13
2019-04-16T07:54:36.042Z,59.84
2019-04-16T07:55:36.056Z,60.13
2019-04-16T07:56:36.078Z,60.04
2019-04-16T07:57:36.117Z,59.97
2019-04-16T07:58:36.123Z,59.97
2019-04-16T07:59:36.143Z,59.40
2019-04-16T08:00:40.287Z,59.11
2019-04-16T08:01:36.192Z,59.11
2019-04-16T08:02:36.214Z,59.56
2019-04-16T08:03:36.241Z,59.94
2019-04-16T08:04:36.483Z,59.63
2019-04-16T08:05:37.783Z,60.20
2019-04-16T08:06:36.301Z,59.81
2019-04-16T08:07:36.322Z,60.07
2019-04-16T08:08:36.341Z,60.55
2019-04-16T08:09:36.363Z,61.13
2019-04-16T08:10:36.384Z,61.57
2019-04-16T08:11:36.402Z,61.66
2019-04-16T08:12:36.423Z,61.86
2019-04-16T08:13:36.444Z,61.86
2019-04-16T08:14:36.465Z,62.52
2019-04-16T08:15:36.484Z,62.62
2019-04-16T08:16:47.069Z,62.97
2019-04-16T08:17:36.526Z,63.73
2019-04-16T08:18:36.545Z,63.54
2019-04-16T08:19:37.489Z,63.35
2019-04-16T08:20:36.585Z,63.07
2019-04-16T08:21:36.604Z,63.35
2019-04-16T08:22:39.693Z,63.35
2019-04-16T08:23:39.093Z,63.73
2019-04-16T08:24:36.661Z,63.99
2019-04-16T08:25:36.681Z,64.65
2019-04-16T08:26:36.701Z,64.37
2019-04-16T08:27:36.727Z,63.51
2019-04-16T08:28:36.739Z,63.32
2019-04-16T08:29:36.759Z,63.51
2019-04-16T08:30:39.318Z,63.23
2019-04-16T08:31:36.796Z,63.04
2019-04-16T08:32:36.816Z,62.37
2019-04-16T08:33:36.843Z,63.13
2019-04-16T08:34:36.855Z,63.13
2019-04-16T08:35:36.872Z,63.80
2019-04-16T08:36:36.889Z,64.28
2019-04-16T08:37:48.253Z,64.56
2019-04-16T08:38:36.934Z,63.42
2019-04-16T08:39:39.660Z,62.56
2019-04-16T08:40:36.966Z,62.65
2019-04-16T08:41:36.988Z,62.94
2019-04-16T08:42:44.377Z,61.99
2019-04-16T08:43:37.023Z,62.37
2019-04-16T08:44:37.042Z,62.18
2019-04-16T08:45:39.920Z,62.08
2019-04-16T08:46:40.153Z,62.18
2019-04-16T08:47:37.098Z,63.04
2019-04-16T08:48:37.117Z,63.42
2019-04-16T08:49:37.136Z,63.99
2019-04-16T08:50:37.155Z,64.47
2019-04-16T08:51:37.890Z,64.47
2019-04-16T08:52:38.562Z,65.42
2019-04-16T08:53:37.272Z,64.37
2019-04-16T08:54:37.265Z,62.27
2019-04-16T08:55:37.329Z,61.35
2019-04-16T08:56:37.332Z,62.40
2019-04-16T08:57:37.329Z,62.49
2019-04-16T08:58:38.371Z,63.16
2019-04-16T08:59:39.505Z,62.88
2019-04-16T09:00:37.341Z,62.40
2019-04-16T09:01:37.419Z,62.30
2019-04-16T09:02:37.379Z,62.68
2019-04-16T09:03:37.398Z,61.73
2019-04-16T09:04:37.418Z,60.68
2019-04-16T09:05:41.290Z,60.58
2019-04-16T09:06:37.456Z,61.44
2019-04-16T09:07:37.470Z,61.44
2019-04-16T09:08:37.491Z,61.83
2019-04-16T09:09:37.511Z,61.92
2019-04-16T09:10:37.529Z,60.39
2019-04-16T09:11:37.546Z,59.44
2019-04-16T09:12:41.343Z,59.06
2019-04-16T09:13:40.903Z,58.68
2019-04-16T09:14:37.605Z,58.77
2019-04-16T09:15:37.622Z,59.16
2019-04-16T09:16:37.642Z,59.82
2019-04-16T09:17:37.661Z,59.47
2019-04-16T09:18:37.679Z,58.70
2019-04-16T09:19:37.699Z,57.75
2019-04-16T09:20:38.487Z,57.65
2019-04-16T09:21:40.656Z,57.85
2019-04-16T09:22:48.047Z,57.28
2019-04-16T09:23:37.778Z,58.99
2019-04-16T09:24:41.463Z,58.99
2019-04-16T09:25:37.814Z,58.14
2019-04-16T09:26:37.832Z,58.14
2019-04-16T09:27:37.850Z,58.33
2019-04-16T09:28:37.870Z,58.90
2019-04-16T09:29:39.124Z,57.94
2019-04-16T09:30:37.908Z,57.94
2019-04-16T09:31:37.925Z,58.14
2019-04-16T09:32:37.946Z,58.23
2019-04-16T09:33:37.967Z,58.80
2019-04-16T09:34:39.607Z,58.23
2019-04-16T09:35:38.004Z,58.04
2019-04-16T09:36:38.026Z,57.56
2019-04-16T09:37:38.041Z,56.16
2019-04-16T09:38:38.061Z,55.87
2019-04-16T09:39:38.080Z,55.96
2019-04-16T09:40:38.099Z,55.87
2019-04-16T09:41:38.119Z,55.58
2019-04-16T09:42:38.136Z,56.25
2019-04-16T09:43:40.295Z,56.06
2019-04-16T09:44:38.177Z,56.25
2019-04-16T09:45:38.202Z,56.16
2019-04-16T09:46:52.330Z,56.06
2019-04-16T09:47:38.235Z,55.40
2019-04-16T09:48:38.252Z,55.87
2019-04-16T09:49:38.407Z,55.96
2019-04-16T09:50:42.923Z,56.06
2019-04-16T09:51:38.315Z,55.77
2019-04-16T09:52:38.328Z,55.49
2019-04-16T09:53:40.260Z,55.49
2019-04-16T09:54:38.367Z,55.30
2019-04-16T09:55:38.388Z,55.68
2019-04-16T09:56:38.407Z,55.30
2019-04-16T09:57:38.425Z,55.23
2019-04-16T09:58:42.355Z,55.99
2019-04-16T09:59:38.465Z,55.32
2019-04-16T10:00:38.484Z,55.13
2019-04-16T10:01:38.503Z,55.42
2019-04-16T10:02:38.523Z,55.23
2019-04-16T10:03:38.540Z,55.42
2019-04-16T10:04:38.560Z,54.56
2019-04-16T10:05:38.581Z,54.08
2019-04-16T10:06:38.602Z,54.56
2019-04-16T10:07:40.275Z,54.75
2019-04-16T10:08:38.654Z,55.61
2019-04-16T10:09:38.663Z,55.90
2019-04-16T10:10:38.695Z,55.71
2019-04-16T10:11:38.701Z,54.47
2019-04-16T10:12:38.733Z,54.27
2019-04-16T10:13:38.762Z,54.30
2019-04-16T10:14:38.785Z,54.11
2019-04-16T10:15:38.777Z,53.41
2019-04-16T10:16:38.795Z,53.82
2019-04-16T10:17:38.834Z,54.56
2019-04-16T10:18:38.854Z,54.11
2019-04-16T10:19:42.991Z,54.21
2019-04-16T10:20:40.344Z,54.11
2019-04-16T10:21:38.899Z,54.30
2019-04-16T10:22:38.918Z,53.82
2019-04-16T10:23:38.939Z,54.02
2019-04-16T10:24:38.957Z,53.44
2019-04-16T10:25:38.981Z,52.58
2019-04-16T10:26:39.013Z,52.10
2019-04-16T10:27:39.026Z,51.84
2019-04-16T10:28:39.071Z,51.27
2019-04-16T10:29:39.133Z,50.89
2019-04-16T10:30:39.148Z,50.60
2019-04-16T10:31:39.177Z,49.84
2019-04-16T10:32:39.204Z,51.29
2019-04-16T10:33:39.241Z,50.72
2019-04-16T10:34:39.210Z,50.05
2019-04-16T10:35:39.205Z,50.36
2019-04-16T10:36:39.226Z,50.17
2019-04-16T10:37:39.313Z,49.88
2019-04-16T10:38:39.273Z,49.62
2019-04-16T10:39:39.304Z,49.24
2019-04-16T10:40:39.346Z,49.05
2019-04-16T10:41:39.346Z,48.75
2019-04-16T10:42:39.386Z,48.85
2019-04-16T10:43:44.911Z,49.16
2019-04-16T10:44:39.441Z,49.36
2019-04-16T10:45:39.446Z,49.00
2019-04-16T10:46:39.652Z,47.01
2019-04-16T10:47:39.527Z,46.62
2019-04-16T10:48:39.523Z,46.62
2019-04-16T10:49:39.580Z,47.89
2019-04-16T10:50:39.583Z,47.80
2019-04-16T10:51:39.711Z,47.15
2019-04-16T10:52:39.637Z,47.15
2019-04-16T10:53:39.679Z,46.12
2019-04-16T10:54:39.693Z,45.45
2019-04-16T10:55:39.744Z,46.02
2019-04-16T10:56:39.761Z,45.47
2019-04-16T10:57:39.783Z,45.08
2019-04-16T10:58:39.817Z,44.82
2019-04-16T10:59:39.862Z,44.26
2019-04-16T11:00:39.874Z,43.78
2019-04-16T11:01:39.908Z,43.13
2019-04-16T11:02:39.946Z,42.74
2019-04-16T11:03:39.970Z,43.44
2019-04-16T11:04:43.030Z,44.23
2019-04-16T11:05:40.027Z,43.17
2019-04-16T11:06:40.051Z,42.32
2019-04-16T11:07:40.091Z,41.94
2019-04-16T11:08:40.113Z,41.67
2019-04-16T11:09:40.176Z,40.34
2019-04-16T11:10:40.189Z,40.44
2019-04-16T11:11:40.208Z,39.47
2019-04-16T11:12:40.373Z,39.57
2019-04-16T11:13:40.289Z,38.70
2019-04-16T11:14:40.305Z,38.99
2019-04-16T11:15:40.337Z,39.69
2019-04-16T11:16:40.372Z,39.01
2019-04-16T11:17:40.403Z,37.75
2019-04-16T11:18:40.434Z,37.08
2019-04-16T11:19:40.472Z,36.98
2019-04-16T11:20:40.499Z,36.11
2019-04-16T11:21:40.538Z,36.01
2019-04-16T11:22:40.565Z,36.88
2019-04-16T11:23:40.614Z,36.69
2019-04-16T11:24:40.653Z,35.24
2019-04-16T11:25:40.662Z,36.50
2019-04-16T11:26:44.175Z,36.79
2019-04-16T11:27:40.731Z,36.69
2019-04-16T11:28:40.762Z,36.50
2019-04-16T11:29:42.023Z,36.22
2019-04-16T11:30:40.861Z,35.64
2019-04-16T11:31:40.883Z,35.57
2019-04-16T11:32:40.885Z,36.71
2019-04-16T11:33:40.921Z,36.72
2019-04-16T11:34:40.953Z,35.66
2019-04-16T11:35:41.054Z,35.18
2019-04-16T11:36:41.107Z,35.66
2019-04-16T11:37:43.618Z,35.66
2019-04-16T11:38:41.216Z,35.37
2019-04-16T11:39:41.165Z,35.18
2019-04-16T11:40:41.418Z,35.00
2019-04-16T11:41:41.177Z,35.29
2019-04-16T11:42:41.241Z,35.49
2019-04-16T11:43:41.261Z,35.39
2019-04-16T11:44:41.287Z,35.20
2019-04-16T11:45:41.309Z,35.60
2019-04-16T11:46:41.371Z,35.50
2019-04-16T11:47:41.400Z,35.02
2019-04-16T11:48:41.444Z,35.41
2019-04-16T11:49:41.478Z,35.42
2019-04-16T11:50:41.476Z,35.33
2019-04-16T11:51:41.518Z,34.84
2019-04-16T11:52:41.574Z,35.05
2019-04-16T11:53:41.576Z,35.25
2019-04-16T11:54:46.726Z,34.67
2019-04-16T11:55:41.658Z,35.25
2019-04-16T11:56:41.677Z,35.17
2019-04-16T11:57:41.706Z,34.69
2019-04-16T11:58:41.781Z,34.49
2019-04-16T11:59:41.805Z,33.52
2019-04-16T12:00:41.806Z,33.04
2019-04-16T12:01:41.867Z,33.72
2019-04-16T12:02:41.881Z,33.42
2019-04-16T12:03:41.948Z,33.62
2019-04-16T12:04:41.947Z,33.42
2019-04-16T12:05:42.017Z,34.49
2019-04-16T12:06:42.029Z,34.39
2019-04-16T12:07:42.133Z,34.57
2019-04-16T12:08:42.077Z,34.96
2019-04-16T12:09:42.110Z,34.88
2019-04-16T12:10:42.165Z,33.72
2019-04-16T12:11:42.177Z,33.04
2019-04-16T12:12:42.256Z,33.33
2019-04-16T12:13:42.335Z,33.42
2019-04-16T12:14:43.292Z,32.82
2019-04-16T12:15:42.322Z,32.92
2019-04-16T12:16:42.346Z,33.51
2019-04-16T12:17:42.396Z,33.12
2019-04-16T12:18:42.413Z,32.54
2019-04-16T12:19:44.831Z,32.82
2019-04-16T12:20:42.508Z,33.02
2019-04-16T12:21:42.523Z,33.39
2019-04-16T12:22:42.561Z,34.07
2019-04-16T12:23:42.587Z,34.55
2019-04-16T12:24:42.613Z,34.38
2019-04-16T12:25:42.647Z,34.19
2019-04-16T12:26:42.677Z,34.38
2019-04-16T12:27:42.721Z,34.19
2019-04-16T12:28:43.452Z,34.19
2019-04-16T12:29:42.779Z,33.60
2019-04-16T12:30:42.810Z,33.41
2019-04-16T12:31:42.850Z,32.92
2019-04-16T12:32:42.913Z,33.59
2019-04-16T12:33:42.942Z,33.47
2019-04-16T12:34:43.004Z,34.63
2019-04-16T12:35:45.355Z,33.94
2019-04-16T12:36:43.067Z,34.99
2019-04-16T12:37:43.060Z,35.37
2019-04-16T12:38:43.153Z,35.45
2019-04-16T12:39:43.110Z,35.05
2019-04-16T12:40:43.165Z,34.86
2019-04-16T12:41:43.181Z,35.03
2019-04-16T12:42:43.227Z,35.50
2019-04-16T12:43:43.229Z,35.88
2019-04-16T12:44:45.751Z,36.15
2019-04-16T12:45:43.312Z,36.54
2019-04-16T12:46:43.317Z,36.71
2019-04-16T12:47:43.477Z,36.71
2019-04-16T12:48:43.375Z,36.91
2019-04-16T12:49:43.420Z,36.79
2019-04-16T12:50:43.449Z,37.37
2019-04-16T12:51:43.496Z,37.74
2019-04-16T12:52:43.482Z,38.02